Time;durP1;ratioP1;P1;durP2;ratioP2;P2;SDS_P1;SDS_P2;PMS_P1;PMS_P2;Temp;Humidity;BMP_temperature;BMP_pressure;BME280_temperature;BME280_humidity;BME280_pressure;Samples;Min_cycle;Max_cycle;Signal;HPM_P1;HPM_P2
2021/03/20 00:02:12;;;;;;;4.15;2.70;;;;;;;1.94;52.27;101593.88;5031387;28;20285;-71
2021/03/20 00:04:38;;;;;;;4.25;3.13;;;;;;;1.93;52.02;101605.34;5021607;28;20665;-71
2021/03/20 00:07:04;;;;;;;2.67;2.45;;;;;;;1.88;52.21;101599.38;5020644;28;20246;-71
2021/03/20 00:09:32;;;;;;;5.18;2.85;;;;;;;1.95;52.29;101597.41;5021050;28;20250;-72
2021/03/20 00:11:59;;;;;;;5.13;3.03;;;;;;;1.80;52.46;101596.97;5026894;28;20321;-72
2021/03/20 00:14:25;;;;;;;6.95;2.60;;;;;;;2.19;51.88;101599.19;5041158;28;20195;-71
2021/03/20 00:16:53;;;;;;;5.35;2.75;;;;;;;2.24;51.45;101605.16;5033549;28;20243;-71
2021/03/20 00:19:21;;;;;;;7.72;3.00;;;;;;;2.31;51.59;101594.38;5022953;28;20211;-71
2021/03/20 00:21:47;;;;;;;3.38;2.65;;;;;;;1.91;52.19;101604.56;5023210;28;20693;-71
2021/03/20 00:24:14;;;;;;;3.38;2.75;;;;;;;1.81;52.55;101611.03;5023388;28;20219;-71
2021/03/20 00:26:40;;;;;;;3.45;2.88;;;;;;;1.68;53.05;101598.28;5025182;28;20230;-71
2021/03/20 00:29:06;;;;;;;4.75;3.00;;;;;;;1.58;53.59;101590.69;5043300;28;20191;-71
2021/03/20 00:31:33;;;;;;;7.15;3.10;;;;;;;1.67;53.46;101593.03;5037482;28;20246;-72
2021/03/20 00:34:00;;;;;;;4.55;3.10;;;;;;;1.68;53.11;101600.03;5034957;28;20229;-71
2021/03/20 00:36:26;;;;;;;4.13;2.72;;;;;;;1.82;53.00;101602.19;5023124;28;20241;-71
2021/03/20 00:38:52;;;;;;;3.70;3.30;;;;;;;1.44;54.38;101602.56;5022824;28;20256;-72
2021/03/20 00:41:18;;;;;;;4.68;3.20;;;;;;;1.41;54.10;101600.00;5022622;28;20301;-72
2021/03/20 00:43:44;;;;;;;3.45;2.75;;;;;;;1.42;53.92;101600.88;5022887;28;20196;-71
2021/03/20 00:46:12;;;;;;;2.35;2.15;;;;;;;1.40;54.04;101606.19;5026706;28;20241;-71
2021/03/20 00:48:40;;;;;;;4.13;2.90;;;;;;;1.73;53.53;101610.44;5038111;28;20269;-72
2021/03/20 00:51:08;;;;;;;4.10;2.95;;;;;;;1.96;53.46;101618.44;5022152;28;20239;-71
2021/03/20 00:53:34;;;;;;;4.05;2.97;;;;;;;1.82;53.47;101618.91;5022887;28;20231;-72
2021/03/20 00:56:01;;;;;;;3.08;2.60;;;;;;;1.67;53.69;101624.69;5025003;28;20731;-72
2021/03/20 00:58:32;;;;;;;3.63;2.88;;;;;;;1.35;54.46;101613.38;5042380;28;20215;-72
2021/03/20 01:01:00;;;;;;;3.50;2.75;;;;;;;1.41;54.18;101610.56;5039177;28;20263;-72
2021/03/20 01:03:26;;;;;;;4.72;2.70;;;;;;;1.38;54.18;101602.72;5022792;28;20219;-72
2021/03/20 01:05:53;;;;;;;6.07;2.67;;;;;;;1.59;53.83;101600.34;5022827;28;20239;-72
2021/03/20 01:08:21;;;;;;;3.80;2.95;;;;;;;1.72;53.68;101606.06;5045218;28;20209;-72
2021/03/20 01:10:48;;;;;;;4.93;2.97;;;;;;;1.59;53.89;101605.59;5045360;28;20242;-71
2021/03/20 01:13:15;;;;;;;3.88;2.60;;;;;;;1.75;53.75;101611.22;5026786;28;20206;-72
2021/03/20 01:15:41;;;;;;;4.18;3.30;;;;;;;1.87;53.58;101602.91;5026235;28;20261;-72
2021/03/20 01:18:08;;;;;;;4.50;3.30;;;;;;;1.88;53.80;101608.13;5043491;28;20207;-72
2021/03/20 01:20:35;;;;;;;4.72;3.30;;;;;;;1.89;53.70;101614.25;5034868;28;20250;-72
2021/03/20 01:23:01;;;;;;;4.18;3.10;;;;;;;1.92;53.60;101608.03;5044545;28;20191;-72
2021/03/20 01:25:28;;;;;;;4.05;2.53;;;;;;;1.85;53.68;101602.97;5045998;28;20265;-72
2021/03/20 01:27:55;;;;;;;3.92;2.90;;;;;;;1.91;53.32;101603.66;5030190;28;20211;-72
2021/03/20 01:30:24;;;;;;;4.38;3.20;;;;;;;1.99;53.68;101606.91;5026202;28;20223;-72
2021/03/20 01:32:50;;;;;;;4.03;2.65;;;;;;;1.91;53.78;101606.31;5040211;28;20214;-72
2021/03/20 01:35:17;;;;;;;4.78;2.70;;;;;;;1.91;53.81;101595.75;5027840;28;20224;-72
2021/03/20 01:37:43;;;;;;;4.47;2.78;;;;;;;2.00;53.74;101593.69;5037019;28;20207;-73
2021/03/20 01:40:11;;;;;;;3.95;2.55;;;;;;;1.81;53.96;101598.72;5045246;28;20187;-72
2021/03/20 01:42:41;;;;;;;5.75;3.03;;;;;;;1.75;53.69;101590.13;5039237;28;20255;-72
2021/03/20 01:45:11;;;;;;;4.95;3.13;;;;;;;1.85;54.08;101602.09;5044937;28;20207;-73
2021/03/20 01:47:44;;;;;;;4.80;2.72;;;;;;;1.64;53.92;101608.94;5045529;28;20706;-73
2021/03/20 01:50:13;;;;;;;5.07;2.60;;;;;;;1.72;54.37;101609.56;5029092;28;20188;-72
2021/03/20 01:52:39;;;;;;;3.75;3.35;;;;;;;1.77;53.83;101619.94;5025845;28;20752;-73
2021/03/20 01:55:07;;;;;;;4.45;2.97;;;;;;;1.77;54.34;101620.84;5028440;28;20231;-72
2021/03/20 01:57:36;;;;;;;3.97;3.10;;;;;;;1.75;54.48;101622.63;5036337;28;20218;-73
2021/03/20 02:00:09;;;;;;;3.95;3.63;;;;;;;1.84;54.12;101625.00;5028361;28;20219;-73
2021/03/20 02:02:35;;;;;;;3.22;2.92;;;;;;;1.86;54.07;101614.38;5045363;28;20221;-73
2021/03/20 02:05:03;;;;;;;3.72;2.80;;;;;;;1.75;54.42;101619.13;5030534;28;20192;-73
2021/03/20 02:07:29;;;;;;;3.10;2.80;;;;;;;1.69;54.29;101622.84;5044421;28;20231;-73
2021/03/20 02:09:55;;;;;;;2.90;2.70;;;;;;;1.85;54.50;101618.78;5044648;28;20259;-72
2021/03/20 02:12:24;;;;;;;8.02;3.63;;;;;;;1.93;54.46;101622.94;5044877;28;20246;-72
2021/03/20 02:14:56;;;;;;;5.20;2.70;;;;;;;2.00;53.38;101627.13;5041405;28;20207;-72
2021/03/20 02:17:31;;;;;;;9.10;3.05;;;;;;;2.01;53.74;101634.09;5024849;28;20272;-73
2021/03/20 02:20:21;;;;;;;5.05;2.95;;;;;;;1.93;54.17;101630.84;5028681;28;20198;-72
2021/03/20 02:23:35;;;;;;;6.13;2.78;;;;;;;2.04;53.93;101634.84;5025196;28;20227;-73
2021/03/20 02:26:11;;;;;;;3.17;2.72;;;;;;;1.79;54.41;101642.72;5026000;28;20235;-72
2021/03/20 02:29:20;;;;;;;4.05;3.55;;;;;;;1.77;54.39;101631.38;5025406;28;20712;-72
2021/03/20 02:31:57;;;;;;;3.25;2.95;;;;;;;1.85;53.90;101618.78;5033663;28;20245;-72
2021/03/20 02:34:32;;;;;;;5.22;2.97;;;;;;;1.83;54.29;101614.47;5044040;28;20199;-73
2021/03/20 02:37:03;;;;;;;6.65;3.05;;;;;;;1.77;54.70;101617.31;5043899;28;20504;-72
2021/03/20 02:39:36;;;;;;;4.25;3.67;;;;;;;1.76;54.45;101623.50;5044470;28;20203;-72
2021/03/20 02:42:07;;;;;;;5.18;2.95;;;;;;;1.76;54.55;101629.63;5039380;28;20223;-73
2021/03/20 02:44:39;;;;;;;4.63;2.85;;;;;;;1.64;55.28;101628.25;5026481;28;20203;-72
2021/03/20 02:47:07;;;;;;;4.68;3.42;;;;;;;1.69;54.75;101633.41;5044309;28;20243;-72
2021/03/20 02:49:38;;;;;;;3.25;2.95;;;;;;;1.75;54.85;101621.78;5042838;28;20218;-73
2021/03/20 02:52:07;;;;;;;4.40;3.45;;;;;;;1.67;54.99;101630.81;5024134;28;20246;-73
2021/03/20 02:54:40;;;;;;;4.05;2.95;;;;;;;1.62;55.01;101630.09;5024924;28;20301;-73
2021/03/20 02:57:13;;;;;;;4.25;3.13;;;;;;;1.61;55.38;101619.59;5024152;28;20285;-73
2021/03/20 02:59:41;;;;;;;4.05;2.85;;;;;;;1.59;55.38;101617.00;5024644;28;20188;-73
2021/03/20 03:02:10;;;;;;;4.78;3.05;;;;;;;1.52;55.46;101610.19;5023935;28;20254;-73
2021/03/20 03:04:40;;;;;;;6.15;3.47;;;;;;;1.56;55.35;101611.81;5037781;28;20214;-73
2021/03/20 03:07:12;;;;;;;5.40;2.83;;;;;;;1.63;54.94;101607.22;5043528;28;20261;-72
2021/03/20 03:09:43;;;;;;;3.38;3.00;;;;;;;1.57;55.17;101607.44;5029425;28;20251;-73
2021/03/20 03:12:13;;;;;;;3.40;3.08;;;;;;;1.54;55.18;101618.91;5023638;28;20239;-73
2021/03/20 03:14:42;;;;;;;6.72;3.58;;;;;;;1.43;55.51;101621.03;5024272;28;20228;-72
2021/03/20 03:17:09;;;;;;;3.53;2.83;;;;;;;1.51;55.80;101613.72;5023389;28;20645;-73
2021/03/20 03:19:42;;;;;;;3.53;3.22;;;;;;;1.60;55.45;101608.19;5024907;28;20211;-73
2021/03/20 03:22:11;;;;;;;3.53;2.95;;;;;;;1.61;55.67;101606.41;5023439;28;20236;-72
2021/03/20 03:24:38;;;;;;;4.82;3.35;;;;;;;1.65;55.31;101611.53;5025286;28;20200;-72
2021/03/20 03:27:07;;;;;;;10.40;3.20;;;;;;;1.81;54.74;101613.69;5023499;28;20251;-73
2021/03/20 03:29:35;;;;;;;6.15;3.03;;;;;;;1.82;54.63;101607.47;5024081;28;20605;-73
2021/03/20 03:32:06;;;;;;;3.53;3.22;;;;;;;1.89;54.76;101609.00;5022761;28;20378;-73
2021/03/20 03:34:35;;;;;;;4.15;3.33;;;;;;;1.86;54.60;101617.03;5027658;28;20196;-73
2021/03/20 03:37:17;;;;;;;6.05;3.58;;;;;;;1.87;54.70;101616.09;5023021;28;20240;-72
2021/03/20 03:39:46;;;;;;;5.70;3.58;;;;;;;1.86;54.68;101617.88;5024869;28;20279;-73
2021/03/20 03:42:14;;;;;;;5.45;4.25;;;;;;;1.82;54.74;101613.63;5028969;28;20222;-72
2021/03/20 03:44:42;;;;;;;6.15;3.45;;;;;;;1.68;55.01;101613.19;5044068;28;20195;-73
2021/03/20 03:47:09;;;;;;;4.90;3.40;;;;;;;1.73;55.16;101608.63;5037457;28;20272;-73
2021/03/20 03:49:35;;;;;;;6.13;3.90;;;;;;;1.66;55.51;101621.16;5024097;28;20262;-73
2021/03/20 03:52:03;;;;;;;6.07;3.58;;;;;;;1.62;55.88;101616.06;5030523;28;20254;-73
2021/03/20 03:54:31;;;;;;;3.90;3.50;;;;;;;1.58;55.62;101614.41;5044005;28;20199;-73
2021/03/20 03:57:18;;;;;;;5.90;3.85;;;;;;;1.44;56.05;101617.47;5035187;28;20240;-72
2021/03/20 03:59:54;;;;;;;6.70;3.78;;;;;;;1.53;55.88;101616.31;5023352;28;20203;-73
2021/03/20 04:02:28;;;;;;;5.60;3.70;;;;;;;1.52;55.50;101614.63;5031995;28;20578;-73
2021/03/20 04:05:01;;;;;;;3.83;3.40;;;;;;;1.48;55.80;101624.41;5028478;28;20210;-72
2021/03/20 04:07:38;;;;;;;6.38;3.50;;;;;;;1.49;55.95;101613.81;5034752;28;20254;-73
2021/03/20 04:10:11;;;;;;;7.70;3.47;;;;;;;1.53;55.52;101618.97;5042070;28;20913;-72
2021/03/20 04:12:57;;;;;;;4.13;3.50;;;;;;;1.53;55.68;101619.84;5042442;28;20620;-73
2021/03/20 04:15:31;;;;;;;4.78;4.10;;;;;;;1.58;55.62;101617.03;4980789;28;20586;-72
2021/03/20 04:18:02;;;;;;;5.28;4.35;;;;;;;1.66;55.78;101615.03;4980949;28;20211;-73
2021/03/20 04:20:32;;;;;;;8.15;4.50;;;;;;;1.81;54.77;101608.41;4980714;28;20295;-72
2021/03/20 04:23:01;;;;;;;8.30;3.90;;;;;;;1.91;54.85;101616.84;4980805;28;20232;-73
2021/03/20 04:25:32;;;;;;;5.47;3.60;;;;;;;1.92;55.04;101615.94;4981142;28;20275;-73
2021/03/20 04:28:05;;;;;;;5.90;4.07;;;;;;;2.04;54.75;101620.81;4980156;28;20673;-73
2021/03/20 04:30:34;;;;;;;5.80;3.80;;;;;;;1.99;55.17;101622.75;4981515;28;20260;-73
2021/03/20 04:33:04;;;;;;;5.20;3.67;;;;;;;2.10;55.23;101615.34;4981028;28;20265;-73
2021/03/20 04:35:35;;;;;;;7.97;3.45;;;;;;;2.10;55.22;101617.09;4964995;28;20255;-73
2021/03/20 04:38:02;;;;;;;7.93;4.18;;;;;;;2.12;54.51;101618.78;4980091;28;20243;-73
2021/03/20 04:40:38;;;;;;;6.20;3.55;;;;;;;2.01;54.81;101626.19;4980850;28;20256;-73
2021/03/20 04:43:05;;;;;;;6.47;4.18;;;;;;;2.05;55.11;101625.19;4980645;28;20235;-73
2021/03/20 04:45:33;;;;;;;5.85;4.05;;;;;;;1.93;55.53;101622.94;4980845;28;20796;-73
2021/03/20 04:48:04;;;;;;;7.88;4.15;;;;;;;1.90;55.66;101623.91;4980638;28;20228;-73
2021/03/20 04:50:31;;;;;;;7.25;4.03;;;;;;;1.97;55.14;101625.44;4980106;28;20236;-72
2021/03/20 04:52:58;;;;;;;5.65;3.60;;;;;;;2.01;55.99;101637.59;5020361;28;20223;-73
2021/03/20 04:55:24;;;;;;;9.90;4.18;;;;;;;2.12;55.59;101631.97;5041687;28;20237;-72
2021/03/20 04:57:54;;;;;;;6.18;3.65;;;;;;;2.21;55.35;101621.09;5022643;28;20278;-73
2021/03/20 05:00:25;;;;;;;5.55;3.75;;;;;;;2.14;54.74;101614.31;5022237;28;20203;-73
2021/03/20 05:02:54;;;;;;;5.40;3.78;;;;;;;2.07;54.88;101626.84;5026721;28;20215;-72
2021/03/20 05:05:24;;;;;;;4.70;3.95;;;;;;;1.98;55.29;101613.97;5041580;28;20223;-73
2021/03/20 05:07:52;;;;;;;4.82;3.13;;;;;;;1.96;55.68;101621.09;5041360;28;20218;-73
2021/03/20 05:10:22;;;;;;;5.38;3.55;;;;;;;1.93;55.48;101634.38;5041797;28;20246;-73
2021/03/20 05:12:49;;;;;;;5.45;3.47;;;;;;;1.99;55.33;101628.00;5025310;28;20204;-73
2021/03/20 05:15:25;;;;;;;6.28;4.00;;;;;;;2.04;55.62;101632.22;5021779;28;20219;-72
2021/03/20 05:17:52;;;;;;;7.32;3.72;;;;;;;2.06;55.14;101638.28;5040560;28;20210;-73
2021/03/20 05:20:18;;;;;;;4.35;3.30;;;;;;;1.94;55.61;101629.94;5023962;28;20292;-73
2021/03/20 05:22:44;;;;;;;5.13;4.15;;;;;;;1.91;55.48;101633.56;5040241;28;20221;-73
2021/03/20 05:25:14;;;;;;;6.03;3.80;;;;;;;2.04;55.11;101631.38;5037184;28;20646;-73
2021/03/20 05:27:40;;;;;;;5.55;4.15;;;;;;;1.92;55.44;101623.88;5039467;28;20215;-72
2021/03/20 05:30:07;;;;;;;4.13;3.75;;;;;;;1.70;56.02;101627.19;5042291;28;20233;-71
2021/03/20 05:32:35;;;;;;;6.53;3.75;;;;;;;1.63;56.57;101623.03;5026113;28;20223;-73
2021/03/20 05:35:05;;;;;;;4.10;3.35;;;;;;;1.88;55.88;101623.97;5024455;28;20207;-74
2021/03/20 05:37:34;;;;;;;5.68;3.85;;;;;;;2.04;55.50;101628.72;5022292;28;20255;-76
2021/03/20 05:40:00;;;;;;;5.35;3.58;;;;;;;1.93;55.87;101633.47;5022704;28;20203;-74
2021/03/20 05:42:35;;;;;;;4.70;3.28;;;;;;;1.85;56.09;101624.06;5022302;28;20243;-74
2021/03/20 05:45:16;;;;;;;5.70;3.97;;;;;;;1.94;55.96;101616.75;5039256;28;20199;-75
2021/03/20 05:47:53;;;;;;;5.97;3.85;;;;;;;2.01;55.80;101627.03;5030297;28;20231;-74
2021/03/20 05:50:30;;;;;;;6.35;3.92;;;;;;;2.04;55.59;101634.84;5021844;28;20204;-73
2021/03/20 05:53:21;;;;;;;3.72;3.30;;;;;;;2.31;55.46;101632.19;5022755;28;20238;-75
2021/03/20 05:55:53;;;;;;;4.65;3.78;;;;;;;2.40;55.18;101623.09;5025647;28;20243;-73
2021/03/20 05:58:34;;;;;;;5.28;3.78;;;;;;;2.52;54.33;101619.13;5039850;28;20218;-74
2021/03/20 06:01:06;;;;;;;4.80;4.25;;;;;;;2.68;53.77;101622.97;5044949;28;20261;-73
2021/03/20 06:03:43;;;;;;;4.05;3.70;;;;;;;2.77;53.66;101619.13;5045456;28;20672;-74
2021/03/20 06:06:34;;;;;;;5.30;3.90;;;;;;;2.78;53.66;101621.72;5039945;28;20231;-73
2021/03/20 06:09:12;;;;;;;4.30;3.30;;;;;;;2.92;53.40;101629.13;5044470;28;20632;-73
2021/03/20 06:11:53;;;;;;;4.85;3.38;;;;;;;3.13;52.67;101638.00;5040653;28;20242;-73
2021/03/20 06:14:35;;;;;;;6.70;3.25;;;;;;;3.47;51.82;101633.19;5025782;28;20200;-73
2021/03/20 06:17:11;;;;;;;5.35;3.38;;;;;;;3.91;50.49;101635.81;5026596;28;20231;-74
2021/03/20 06:19:48;;;;;;;8.43;3.78;;;;;;;3.84;50.99;101627.28;5030119;28;20238;-74
2021/03/20 06:22:30;;;;;;;6.35;3.10;;;;;;;4.01;50.15;101631.00;5029182;28;20231;-74
2021/03/20 06:25:05;;;;;;;3.83;3.40;;;;;;;4.74;48.39;101634.91;5042840;28;20231;-73
2021/03/20 06:27:36;;;;;;;5.00;3.23;;;;;;;5.77;45.30;101648.63;5044266;28;20226;-72
2021/03/20 06:30:06;;;;;;;5.88;3.10;;;;;;;6.14;43.97;101652.13;5044993;28;20450;-72
2021/03/20 06:32:36;;;;;;;3.47;2.90;;;;;;;7.61;41.42;101662.97;5044073;28;20227;-74
2021/03/20 06:35:07;;;;;;;5.77;3.10;;;;;;;8.32;39.71;101661.53;5044557;28;20462;-73
2021/03/20 06:37:37;;;;;;;3.93;2.83;;;;;;;8.49;38.66;101664.09;5043579;28;20489;-73
2021/03/20 06:40:07;;;;;;;6.40;3.53;;;;;;;7.76;40.33;101670.09;5044758;28;20450;-73
2021/03/20 06:42:35;;;;;;;5.27;3.07;;;;;;;7.46;40.86;101662.84;5044326;28;20481;-74
2021/03/20 06:45:06;;;;;;;5.00;3.37;;;;;;;7.08;42.40;101657.00;5044267;28;20473;-73
2021/03/20 06:47:34;;;;;;;5.73;3.13;;;;;;;8.28;39.73;101668.84;5036405;28;20501;-73
2021/03/20 06:50:05;;;;;;;5.07;3.23;;;;;;;9.65;37.19;101665.72;5044780;28;20488;-73
2021/03/20 06:52:35;;;;;;;3.60;2.80;;;;;;;9.93;36.25;101666.59;5044054;28;20501;-73
2021/03/20 06:55:06;;;;;;;5.20;2.50;;;;;;;9.57;35.72;101671.56;5044329;28;20957;-74
2021/03/20 06:57:32;;;;;;;2.60;2.40;;;;;;;9.37;36.28;101664.88;5043688;28;20466;-73
2021/03/20 07:00:20;;;;;;;3.13;2.83;;;;;;;9.83;35.44;101668.19;5044355;28;20474;-72
2021/03/20 07:02:55;;;;;;;3.90;2.87;;;;;;;11.24;32.88;101657.63;5038848;28;20545;-72
2021/03/20 07:05:26;;;;;;;5.67;3.60;;;;;;;11.07;32.25;101664.19;5041247;28;20481;-72
2021/03/20 07:08:10;;;;;;;4.43;2.90;;;;;;;11.85;31.36;101674.56;5043426;28;20445;-73
2021/03/20 07:10:41;;;;;;;4.93;2.63;;;;;;;13.21;28.13;101679.44;5042792;28;20509;-72
2021/03/20 07:13:18;;;;;;;2.53;2.30;;;;;;;13.40;27.89;101674.31;5044418;28;20450;-73
2021/03/20 07:15:45;;;;;;;4.40;2.73;;;;;;;13.41;28.13;101677.88;5043560;28;20468;-73
2021/03/20 07:18:33;;;;;;;3.87;2.60;;;;;;;14.17;26.35;101683.28;5043311;28;20458;-73
2021/03/20 07:21:01;;;;;;;10.07;5.73;;;;;;;16.17;23.69;101684.59;5037003;28;20481;-73
2021/03/20 07:23:28;;;;;;;4.20;2.83;;;;;;;15.70;25.05;101690.63;5043073;28;20887;-73
2021/03/20 07:26:04;;;;;;;4.87;2.40;;;;;;;16.72;23.83;101700.19;5043156;28;20466;-73
2021/03/20 07:28:31;;;;;;;4.40;2.93;;;;;;;16.78;22.97;101696.03;5043427;28;20966;-74
2021/03/20 07:31:05;;;;;;;5.47;2.20;;;;;;;18.17;21.05;101699.66;5043360;28;20493;-74
2021/03/20 07:33:34;;;;;;;5.70;4.37;;;;;;;18.22;21.65;101698.16;5038342;28;20455;-74
2021/03/20 07:36:19;;;;;;;3.27;2.20;;;;;;;18.08;21.55;101706.84;5042852;28;20478;-76
2021/03/20 07:38:46;;;;;;;4.73;2.70;;;;;;;16.88;21.47;101707.72;5034933;28;20458;-75
2021/03/20 07:41:15;;;;;;;20.63;14.00;;;;;;;17.33;21.59;101696.16;5043112;28;20477;-76
2021/03/20 07:43:41;;;;;;;3.33;2.30;;;;;;;19.53;18.75;101698.19;5043049;28;20537;-77
2021/03/20 07:46:17;;;;;;;5.77;3.40;;;;;;;18.37;19.93;101694.94;5042814;28;20484;-75
2021/03/20 07:48:44;;;;;;;3.27;2.37;;;;;;;10.88;28.43;101697.63;5043112;28;20449;-71
2021/03/20 07:51:13;;;;;;;3.30;2.33;;;;;;;9.29;31.47;101703.63;5042439;28;20493;-72
2021/03/20 07:53:42;;;;;;;4.23;2.67;;;;;;;10.58;30.26;101705.06;5043014;28;20454;-71
2021/03/20 07:56:28;;;;;;;5.20;3.47;;;;;;;15.64;23.99;101701.97;5042546;28;20482;-70
2021/03/20 07:59:04;;;;;;;9.87;5.47;;;;;;;17.25;21.31;101702.31;5038490;28;20473;-70
2021/03/20 08:01:32;;;;;;;3.60;2.40;;;;;;;17.38;20.79;101704.69;5040238;28;21077;-70
2021/03/20 08:04:00;;;;;;;2.10;1.50;;;;;;;17.84;18.56;101710.09;5039431;28;20460;-69
2021/03/20 08:06:29;;;;;;;1.60;1.20;;;;;;;14.83;20.45;101702.75;5039944;28;20563;-75
2021/03/20 08:09:13;;;;;;;4.13;1.53;;;;;;;13.59;25.81;101703.22;5041273;28;20869;-73
2021/03/20 08:11:40;;;;;;;3.27;1.67;;;;;;;11.94;30.08;101702.53;5039819;28;20849;-72
2021/03/20 08:14:10;;;;;;;3.70;2.30;;;;;;;12.34;27.05;101699.56;5040382;28;20458;-72
2021/03/20 08:16:36;;;;;;;2.40;1.97;;;;;;;11.87;27.16;101709.28;5040006;28;20474;-72
2021/03/20 08:19:03;;;;;;;2.73;2.37;;;;;;;11.25;27.35;101719.09;5040335;28;20453;-72
2021/03/20 08:21:59;;;;;;;39.87;25.07;;;;;;;11.84;26.45;101713.06;5040132;28;20485;-73
2021/03/20 08:24:38;;;;;;;3.60;2.17;;;;;;;10.12;28.20;101714.31;5040020;28;20450;-73
2021/03/20 08:27:13;;;;;;;2.13;1.67;;;;;;;9.76;28.03;101723.81;5041958;28;20484;-73
2021/03/20 08:30:00;;;;;;;5.57;1.70;;;;;;;10.36;27.05;101711.84;5040202;28;20461;-73
2021/03/20 08:32:37;;;;;;;12.60;5.57;;;;;;;8.95;28.97;101711.09;5034912;28;20481;-73
2021/03/20 08:35:12;;;;;;;5.00;2.20;;;;;;;10.65;26.73;101709.88;5040607;28;20446;-72
2021/03/20 08:37:46;;;;;;;3.07;1.87;;;;;;;13.17;23.86;101708.38;5039661;28;20465;-73
2021/03/20 08:40:26;;;;;;;2.60;1.87;;;;;;;15.86;20.29;101706.28;5040342;28;20445;-71
2021/03/20 08:43:02;;;;;;;1.10;0.90;;;;;;;17.16;18.05;101703.19;5047204;28;20444;-73
2021/03/20 08:45:33;;;;;;;3.07;1.23;;;;;;;17.41;17.50;101703.50;5046841;28;20523;-72
2021/03/20 08:48:15;;;;;;;3.87;2.37;;;;;;;17.98;16.63;101701.47;5025190;28;20836;-69
2021/03/20 08:50:49;;;;;;;2.20;1.30;;;;;;;18.57;17.07;101704.53;5030849;28;20535;-69
2021/03/20 08:53:21;;;;;;;3.63;1.50;;;;;;;14.66;19.64;101695.28;5040943;28;20472;-66
2021/03/20 08:56:00;;;;;;;2.83;1.60;;;;;;;14.97;20.92;101704.25;5040771;28;20480;-67
2021/03/20 08:58:38;;;;;;;3.27;1.33;;;;;;;14.45;20.52;101697.94;5040717;28;20449;-68
2021/03/20 09:01:08;;;;;;;2.10;1.40;;;;;;;11.44;21.67;101691.00;5040443;28;20480;-69
2021/03/20 09:03:38;;;;;;;1.97;1.53;;;;;;;10.49;24.65;101682.50;5029262;28;20446;-68
2021/03/20 09:06:14;;;;;;;2.50;1.53;;;;;;;10.70;24.28;101682.81;5038189;28;20480;-71
2021/03/20 09:08:43;;;;;;;2.10;1.27;;;;;;;12.15;22.87;101678.66;5038765;28;20472;-67
2021/03/20 09:11:28;;;;;;;3.87;1.53;;;;;;;11.31;23.19;101662.41;5040098;28;20535;-69
2021/03/20 09:13:57;;;;;;;3.73;1.53;;;;;;;12.09;23.53;101672.91;5032468;28;20454;-74
2021/03/20 09:16:33;;;;;;;2.60;1.13;;;;;;;11.28;23.84;101667.13;5019542;28;20473;-74
2021/03/20 09:19:00;;;;;;;3.90;1.10;;;;;;;11.22;24.27;101665.78;5028406;28;20511;-76
2021/03/20 09:21:27;;;;;;;3.07;1.07;;;;;;;11.16;24.31;101671.53;5037477;28;20485;-69
2021/03/20 09:23:54;;;;;;;2.50;1.47;;;;;;;10.61;25.33;101665.59;5038917;28;20438;-72
2021/03/20 09:26:43;;;;;;;4.10;1.70;;;;;;;10.90;26.58;101670.72;5040181;28;20482;-75
2021/03/20 09:29:12;;;;;;;2.40;1.60;;;;;;;10.10;26.64;101663.66;5042223;28;20524;-76
2021/03/20 09:32:07;;;;;;;3.40;1.43;;;;;;;10.44;27.48;101666.75;5042604;28;20539;-73
2021/03/20 09:34:38;;;;;;;3.23;1.20;;;;;;;9.67;27.68;101661.16;5035058;28;20473;-75
2021/03/20 09:37:07;;;;;;;3.27;1.73;;;;;;;10.04;26.94;101660.56;5042583;28;20481;-74
2021/03/20 09:39:42;;;;;;;2.97;1.40;;;;;;;10.14;26.29;101662.50;5042672;28;20468;-74
2021/03/20 09:42:35;;;;;;;2.20;1.00;;;;;;;10.10;26.42;101666.34;5038601;28;20480;-74
2021/03/20 09:45:04;;;;;;;3.00;1.50;;;;;;;9.05;27.97;101659.72;5037278;28;20446;-73
2021/03/20 09:47:47;;;;;;;2.33;1.50;;;;;;;9.54;26.57;101658.41;5038392;28;20505;-74
2021/03/20 09:50:35;;;;;;;3.70;2.10;;;;;;;9.73;26.50;101663.41;5027198;28;20469;-74
2021/03/20 09:53:36;;;;;;;4.30;2.60;;;;;;;10.32;25.57;101667.59;5038614;28;20484;-75
2021/03/20 09:56:27;;;;;;;3.90;2.43;;;;;;;10.64;24.78;101664.50;5051304;28;20473;-75
2021/03/20 09:58:57;;;;;;;4.97;2.27;;;;;;;10.27;25.56;101664.34;5025754;28;20461;-75
2021/03/20 10:01:43;;;;;;;3.43;2.13;;;;;;;10.88;25.21;101672.66;5033134;28;20570;-75
2021/03/20 10:04:28;;;;;;;3.60;2.30;;;;;;;10.78;25.11;101660.88;5040571;28;20457;-76
2021/03/20 10:07:29;;;;;;;4.90;2.77;;;;;;;10.61;25.29;101676.28;5042464;28;20917;-77
2021/03/20 10:09:59;;;;;;;2.70;1.90;;;;;;;11.05;24.09;101671.47;5040193;28;20938;-76
2021/03/20 10:12:28;;;;;;;5.20;2.07;;;;;;;11.08;24.67;101674.78;5034863;28;20512;-76
2021/03/20 10:15:28;;;;;;;4.43;2.23;;;;;;;10.97;24.22;101666.69;5032910;28;20524;-76
2021/03/20 10:18:21;;;;;;;3.57;2.00;;;;;;;10.49;24.23;101677.16;5023087;28;20466;-75
2021/03/20 10:21:26;;;;;;;3.77;2.67;;;;;;;10.83;23.79;101664.97;5030054;28;20466;-77
2021/03/20 10:23:59;;;;;;;2.40;1.60;;;;;;;11.49;23.36;101664.72;5039000;28;20477;-71
2021/03/20 10:26:36;;;;;;;4.67;2.80;;;;;;;11.97;22.56;101667.47;5042268;28;20485;-70
2021/03/20 10:29:04;;;;;;;4.43;2.00;;;;;;;12.51;21.64;101670.59;5042903;28;20576;-70
2021/03/20 10:31:42;;;;;;;3.13;1.60;;;;;;;12.36;20.10;101665.44;5042272;28;20539;-70
2021/03/20 10:34:11;;;;;;;4.43;1.83;;;;;;;12.46;22.15;101667.41;5035417;28;20496;-70
2021/03/20 10:36:40;;;;;;;3.30;1.63;;;;;;;12.59;22.08;101662.81;5021738;28;20624;-70
2021/03/20 10:39:28;;;;;;;3.53;1.67;;;;;;;12.53;21.62;101657.91;5022587;28;20451;-69
2021/03/20 10:41:58;;;;;;;2.50;1.30;;;;;;;12.33;23.38;101646.03;5024101;28;20488;-69
2021/03/20 10:44:25;;;;;;;2.00;1.10;;;;;;;12.59;22.51;101641.34;5042785;28;20450;-70
2021/03/20 10:47:05;;;;;;;3.00;1.83;;;;;;;12.08;21.93;101629.13;5041930;28;20477;-70
2021/03/20 10:49:37;;;;;;;2.47;1.60;;;;;;;11.96;22.94;101638.97;5031744;28;20867;-70
2021/03/20 10:52:04;;;;;;;5.10;2.10;;;;;;;12.21;21.27;101629.06;5021505;28;20482;-69
2021/03/20 10:54:34;;;;;;;3.67;1.40;;;;;;;12.42;21.63;101614.00;5022712;28;20427;-70
2021/03/20 10:57:03;;;;;;;3.30;1.70;;;;;;;11.95;22.53;101615.81;5022030;28;20478;-69
2021/03/20 10:59:34;;;;;;;2.30;1.53;;;;;;;12.69;21.70;101626.25;5033216;28;20458;-69
2021/03/20 11:02:20;;;;;;;2.87;2.00;;;;;;;12.58;21.10;101624.38;5027502;28;20486;-69
2021/03/20 11:04:46;;;;;;;2.87;1.40;;;;;;;12.21;22.07;101632.59;5033568;28;20453;-68
2021/03/20 11:07:16;;;;;;;1.60;1.50;;;;;;;13.16;22.39;101629.66;5040826;28;20473;-72
2021/03/20 11:09:43;;;;;;;2.50;1.47;;;;;;;12.61;23.18;101618.78;5042378;28;20512;-72
2021/03/20 11:12:13;;;;;;;4.60;2.60;;;;;;;13.72;21.37;101617.94;5039488;28;20482;-73
2021/03/20 11:14:48;;;;;;;2.80;1.73;;;;;;;14.71;20.81;101611.47;5042643;28;20442;-73
2021/03/20 11:17:19;;;;;;;3.73;1.70;;;;;;;13.73;20.76;101622.34;5034572;28;20473;-73
2021/03/20 11:19:46;;;;;;;2.00;1.40;;;;;;;13.96;20.22;101621.38;5035806;28;20898;-73
2021/03/20 11:22:20;;;;;;;1.87;1.37;;;;;;;13.12;21.11;101620.13;5040922;28;20502;-74
2021/03/20 11:24:52;;;;;;;2.90;1.60;;;;;;;11.67;22.28;101609.81;5035425;28;20454;-74
2021/03/20 11:27:21;;;;;;;2.17;1.33;;;;;;;13.10;21.67;101613.16;5040663;28;20482;-75
2021/03/20 11:29:49;;;;;;;6.40;2.00;;;;;;;13.42;20.47;101618.66;5040204;28;20457;-73
2021/03/20 11:32:23;;;;;;;2.40;1.30;;;;;;;12.58;21.16;101610.09;5035848;28;20489;-73
2021/03/20 11:34:56;;;;;;;3.27;1.73;;;;;;;12.26;22.21;101621.53;5034961;28;20933;-73
2021/03/20 11:37:26;;;;;;;3.37;2.30;;;;;;;12.41;21.87;101598.88;5021226;28;20951;-73
2021/03/20 11:39:53;;;;;;;2.57;1.47;;;;;;;11.98;22.78;101606.69;5026240;28;20535;-75
2021/03/20 11:42:24;;;;;;;2.27;1.60;;;;;;;11.74;23.08;101598.66;5026886;28;21058;-73
2021/03/20 11:44:50;;;;;;;3.07;1.70;;;;;;;12.30;23.44;101588.13;5029730;28;20447;-73
2021/03/20 11:47:21;;;;;;;3.27;1.70;;;;;;;12.21;23.20;101589.69;5020019;28;20482;-75
2021/03/20 11:49:50;;;;;;;3.53;1.57;;;;;;;12.58;22.83;101585.97;5033259;28;20523;-74
2021/03/20 11:52:17;;;;;;;3.47;1.60;;;;;;;11.99;22.48;101582.44;5036304;28;20572;-73
2021/03/20 11:54:44;;;;;;;3.70;1.40;;;;;;;11.34;20.86;101567.66;5020053;28;20789;-72